createdAt,value
2022-10-26T00:02:21.147Z,37.43
2022-10-26T00:04:50.268Z,34.23
2022-10-26T00:07:19.055Z,34.13
2022-10-26T00:09:49.134Z,39.60
2022-10-26T00:12:17.739Z,41.03
2022-10-26T00:14:46.349Z,40.87
2022-10-26T00:17:15.002Z,38.37
2022-10-26T00:19:43.684Z,37.60
2022-10-26T00:22:12.432Z,38.00
2022-10-26T00:24:41.048Z,34.33
2022-10-26T00:27:11.131Z,34.13
2022-10-26T00:29:42.915Z,34.37
2022-10-26T00:32:11.659Z,40.50
2022-10-26T00:34:40.579Z,41.40
2022-10-26T00:37:09.887Z,39.87
2022-10-26T00:39:40.842Z,41.23
2022-10-26T00:42:14.510Z,43.97
2022-10-26T00:45:06.281Z,39.23
2022-10-26T00:47:46.828Z,39.87
2022-10-26T00:50:19.766Z,38.63
2022-10-26T00:52:49.932Z,38.27
2022-10-26T00:55:23.366Z,39.07
2022-10-26T00:57:54.955Z,37.43
2022-10-26T01:00:23.860Z,39.63
2022-10-26T01:02:54.919Z,41.73
2022-10-26T01:05:25.575Z,40.97
2022-10-26T01:07:55.682Z,42.53
2022-10-26T01:10:26.481Z,44.83
2022-10-26T01:12:58.211Z,40.63
2022-10-26T01:15:34.370Z,43.33
2022-10-26T01:18:10.855Z,42.63
2022-10-26T01:21:10.000Z,43.50
2022-10-26T01:23:52.321Z,38.83
2022-10-26T01:26:43.284Z,41.43
2022-10-26T01:29:33.273Z,39.97
2022-10-26T01:32:11.339Z,40.23
2022-10-26T01:34:46.361Z,41.23
2022-10-26T01:37:22.446Z,39.73
2022-10-26T01:39:55.708Z,41.70
2022-10-26T01:42:27.563Z,43.33
2022-10-26T01:45:01.188Z,43.93
2022-10-26T01:47:35.443Z,45.67
2022-10-26T01:50:05.953Z,49.13
2022-10-26T01:52:35.388Z,49.40
2022-10-26T01:55:05.077Z,50.33
2022-10-26T01:57:36.935Z,56.47
2022-10-26T02:00:09.707Z,50.20
2022-10-26T02:03:01.966Z,52.63
2022-10-26T02:05:54.709Z,47.63
2022-10-26T02:08:39.250Z,51.47
2022-10-26T02:11:17.825Z,50.37
2022-10-26T02:13:52.821Z,45.93
2022-10-26T02:16:27.864Z,49.47
2022-10-26T02:19:04.565Z,48.50
2022-10-26T02:21:43.117Z,44.53
2022-10-26T02:24:15.377Z,45.33
2022-10-26T02:26:48.037Z,48.73
2022-10-26T02:29:20.426Z,47.47
2022-10-26T02:31:51.844Z,48.70
2022-10-26T02:34:27.322Z,51.20
2022-10-26T02:36:59.323Z,54.80
2022-10-26T02:39:32.611Z,55.17
2022-10-26T02:42:03.936Z,52.43
2022-10-26T02:44:37.989Z,52.60
2022-10-26T02:47:06.707Z,52.77
2022-10-26T02:49:38.771Z,51.13
2022-10-26T02:52:14.739Z,48.50
2022-10-26T02:54:50.811Z,52.77
2022-10-26T02:57:22.449Z,61.23
2022-10-26T02:59:51.411Z,57.43
2022-10-26T03:02:21.199Z,50.13
2022-10-26T03:04:51.952Z,52.10
2022-10-26T03:07:24.350Z,52.17
2022-10-26T03:09:53.092Z,52.97
2022-10-26T03:12:21.922Z,48.70
2022-10-26T03:14:50.463Z,45.23
2022-10-26T03:17:19.378Z,47.40
2022-10-26T03:19:48.078Z,51.43
2022-10-26T03:22:18.057Z,48.93
2022-10-26T03:24:46.747Z,50.07
2022-10-26T03:27:16.039Z,48.77
2022-10-26T03:29:47.213Z,50.23
2022-10-26T03:32:15.875Z,131.43
2022-10-26T03:34:44.756Z,66.03
2022-10-26T03:37:13.392Z,57.87
2022-10-26T03:39:43.502Z,56.37
2022-10-26T03:42:12.148Z,56.17
2022-10-26T03:44:40.760Z,56.90
2022-10-26T03:47:09.519Z,52.50
2022-10-26T03:49:40.935Z,48.07
2022-10-26T03:52:09.699Z,39.90
2022-10-26T03:54:38.562Z,38.17
2022-10-26T03:57:08.748Z,40.00
2022-10-26T03:59:37.792Z,43.17
2022-10-26T04:02:06.383Z,42.43
2022-10-26T04:04:35.270Z,38.77
2022-10-26T04:07:03.879Z,37.53
2022-10-26T04:09:32.517Z,42.37
2022-10-26T04:12:01.082Z,40.07
2022-10-26T04:14:31.198Z,41.40
2022-10-26T04:16:59.835Z,40.90
2022-10-26T04:19:29.348Z,42.93
2022-10-26T04:21:57.986Z,46.37
2022-10-26T04:24:26.664Z,45.23
2022-10-26T04:26:55.364Z,64.97
2022-10-26T04:29:23.937Z,47.13
2022-10-26T04:31:54.112Z,39.80
2022-10-26T04:34:22.851Z,44.43
2022-10-26T04:36:51.653Z,42.93
2022-10-26T04:39:20.252Z,47.67
2022-10-26T04:41:49.192Z,82.40
2022-10-26T04:44:17.822Z,57.20
2022-10-26T04:46:46.691Z,50.07
2022-10-26T04:49:16.697Z,62.97
2022-10-26T04:51:46.262Z,66.00
2022-10-26T04:54:15.142Z,71.03
2022-10-26T04:56:43.872Z,60.80
2022-10-26T04:59:17.593Z,59.20
2022-10-26T05:01:57.280Z,67.17
2022-10-26T05:04:27.561Z,60.87
2022-10-26T05:06:56.194Z,59.47
2022-10-26T05:09:24.917Z,62.53
2022-10-26T05:11:53.597Z,56.50
2022-10-26T05:14:33.569Z,55.83
2022-10-26T05:17:07.007Z,60.93
2022-10-26T05:19:40.423Z,56.97
2022-10-26T05:22:09.441Z,58.27
2022-10-26T05:24:41.205Z,58.27
2022-10-26T05:27:09.902Z,62.13
2022-10-26T05:29:41.692Z,54.87
2022-10-26T05:32:13.001Z,56.53
2022-10-26T05:35:02.780Z,56.83
2022-10-26T05:37:41.784Z,56.73
2022-10-26T05:40:25.910Z,65.57
2022-10-26T05:42:54.962Z,60.73
2022-10-26T05:45:23.583Z,54.20
2022-10-26T05:47:52.462Z,58.60
2022-10-26T05:50:27.437Z,58.60
2022-10-26T05:52:58.654Z,56.27
2022-10-26T05:55:28.070Z,58.93
2022-10-26T05:57:57.418Z,54.20
2022-10-26T06:00:28.777Z,66.77
2022-10-26T06:03:15.596Z,77.00
2022-10-26T06:05:53.799Z,74.70
2022-10-26T06:08:24.819Z,82.57
2022-10-26T06:10:55.736Z,85.83
2022-10-26T06:13:28.071Z,84.80
2022-10-26T06:16:14.307Z,83.97
2022-10-26T06:19:03.624Z,74.20
2022-10-26T06:21:47.229Z,63.13
2022-10-26T06:24:23.073Z,72.80
2022-10-26T06:26:59.653Z,78.87
2022-10-26T06:29:51.797Z,76.43
2022-10-26T06:32:33.784Z,74.23
2022-10-26T06:35:23.589Z,71.53
2022-10-26T06:37:55.733Z,61.73
2022-10-26T06:40:25.706Z,73.33
2022-10-26T06:42:54.919Z,78.53
2022-10-26T06:45:24.336Z,80.57
2022-10-26T06:47:58.770Z,96.97
2022-10-26T06:50:35.292Z,91.80
2022-10-26T06:53:21.333Z,81.77
2022-10-26T06:55:53.825Z,82.50
2022-10-26T06:58:26.066Z,81.47
2022-10-26T07:00:56.966Z,88.20
2022-10-26T07:03:40.437Z,66.77
2022-10-26T07:06:12.015Z,77.20
2022-10-26T07:08:42.174Z,89.20
2022-10-26T07:11:10.895Z,64.00
2022-10-26T07:13:39.455Z,64.77
2022-10-26T07:16:08.619Z,86.43
2022-10-26T07:18:40.027Z,115.83
2022-10-26T07:21:08.819Z,138.67
2022-10-26T07:23:46.048Z,144.37
2022-10-26T07:26:14.653Z,134.30
2022-10-26T07:28:43.285Z,137.50
2022-10-26T07:31:11.917Z,149.40
2022-10-26T07:33:41.889Z,142.70
2022-10-26T07:36:11.163Z,138.03
2022-10-26T07:38:42.077Z,129.17
2022-10-26T07:41:10.676Z,134.13
2022-10-26T07:43:39.538Z,135.37
2022-10-26T07:46:08.277Z,138.37
2022-10-26T07:48:40.073Z,138.70
2022-10-26T07:51:08.801Z,150.50
2022-10-26T07:53:38.310Z,144.47
2022-10-26T07:56:09.751Z,125.70
2022-10-26T07:58:39.067Z,148.40
2022-10-26T08:01:08.983Z,132.00
2022-10-26T08:03:46.931Z,135.77
2022-10-26T08:06:15.694Z,140.10
2022-10-26T08:08:46.573Z,131.43
2022-10-26T08:11:18.312Z,133.67
2022-10-26T08:13:47.264Z,139.00
2022-10-26T08:16:16.122Z,129.07
2022-10-26T08:18:44.989Z,140.23
2022-10-26T08:21:21.870Z,138.83
2022-10-26T08:23:59.132Z,146.47
2022-10-26T08:26:29.366Z,143.60
2022-10-26T08:28:58.057Z,140.73
2022-10-26T08:31:26.742Z,130.03
2022-10-26T08:33:55.404Z,136.30
2022-10-26T08:36:26.970Z,132.77
2022-10-26T08:38:55.837Z,126.83
2022-10-26T08:41:34.323Z,138.03
2022-10-26T08:44:08.079Z,121.77
2022-10-26T08:46:41.128Z,119.47
2022-10-26T08:49:20.731Z,124.27
2022-10-26T08:51:52.837Z,133.80
2022-10-26T08:54:28.811Z,143.90
2022-10-26T08:57:03.091Z,134.80
2022-10-26T08:59:37.552Z,142.17
2022-10-26T09:02:14.012Z,152.17
2022-10-26T09:04:43.135Z,153.40
2022-10-26T09:07:20.274Z,125.67
2022-10-26T09:09:59.540Z,127.33
2022-10-26T09:12:38.282Z,140.70
2022-10-26T09:15:16.631Z,157.83
2022-10-26T09:17:53.977Z,147.97
2022-10-26T09:20:43.525Z,156.93
2022-10-26T09:23:25.385Z,146.90
2022-10-26T09:26:00.275Z,126.20
2022-10-26T09:28:36.040Z,143.17
2022-10-26T09:31:06.789Z,154.80
2022-10-26T09:33:38.974Z,131.53
2022-10-26T09:36:13.332Z,132.03
2022-10-26T09:38:50.612Z,147.63
2022-10-26T09:41:27.193Z,145.83
2022-10-26T09:44:07.735Z,128.77
2022-10-26T09:46:45.412Z,151.83
2022-10-26T09:49:16.985Z,150.73
2022-10-26T09:51:46.682Z,138.33
2022-10-26T09:54:17.727Z,147.27
2022-10-26T09:56:49.484Z,148.00
2022-10-26T09:59:22.043Z,144.30
2022-10-26T10:01:53.866Z,142.97
2022-10-26T10:04:24.446Z,147.97
2022-10-26T10:06:54.181Z,136.93
2022-10-26T10:09:24.465Z,146.53
2022-10-26T10:11:58.812Z,158.17
2022-10-26T10:14:34.730Z,155.20
2022-10-26T10:17:08.521Z,144.80
2022-10-26T10:19:38.810Z,134.30
2022-10-26T10:22:13.884Z,158.97
2022-10-26T10:24:44.086Z,151.63
2022-10-26T10:27:19.917Z,164.10
2022-10-26T10:29:52.651Z,158.20
2022-10-26T10:32:23.050Z,163.97
2022-10-26T10:34:54.237Z,156.63
2022-10-26T10:37:27.768Z,153.57
2022-10-26T10:40:06.527Z,145.93
2022-10-26T10:42:38.815Z,141.97
2022-10-26T10:45:20.898Z,129.90
2022-10-26T10:48:02.647Z,136.13
2022-10-26T10:50:32.080Z,131.37
2022-10-26T10:53:16.935Z,137.63
2022-10-26T10:55:54.340Z,126.27
2022-10-26T10:58:28.899Z,108.23
2022-10-26T11:00:59.691Z,111.23
2022-10-26T11:03:51.474Z,111.20
2022-10-26T11:06:23.154Z,116.53
2022-10-26T11:08:57.079Z,121.20
2022-10-26T11:11:30.347Z,113.63
2022-10-26T11:14:04.401Z,121.07
2022-10-26T11:16:40.510Z,119.77
2022-10-26T11:19:19.877Z,113.00
2022-10-26T11:21:52.896Z,120.97
2022-10-26T11:24:28.238Z,104.70
2022-10-26T11:27:01.609Z,103.23
2022-10-26T11:29:43.522Z,113.63
2022-10-26T11:32:22.017Z,124.60
2022-10-26T11:34:57.352Z,105.80
2022-10-26T11:37:32.142Z,117.23
2022-10-26T11:40:13.466Z,122.97
2022-10-26T11:42:46.304Z,125.37
2022-10-26T11:45:21.898Z,120.13
2022-10-26T11:47:55.411Z,104.43
2022-10-26T11:50:27.333Z,103.10
2022-10-26T11:53:01.314Z,122.87
2022-10-26T11:55:31.216Z,110.37
2022-10-26T11:58:00.462Z,111.93
2022-10-26T12:00:29.443Z,100.97
2022-10-26T12:03:03.687Z,101.73
2022-10-26T12:05:45.795Z,106.33
2022-10-26T12:08:18.668Z,102.30
2022-10-26T12:10:51.876Z,102.80
2022-10-26T12:13:28.339Z,102.47
2022-10-26T12:16:04.276Z,106.23
2022-10-26T12:18:54.946Z,109.33
2022-10-26T12:21:28.047Z,88.07
2022-10-26T12:23:58.570Z,91.47
2022-10-26T12:26:54.909Z,95.30
2022-10-26T12:29:38.343Z,96.30
2022-10-26T12:32:51.472Z,95.17
2022-10-26T12:35:42.603Z,94.83
2022-10-26T12:38:47.573Z,102.37
2022-10-26T12:41:27.516Z,87.30
2022-10-26T12:44:01.308Z,105.00
2022-10-26T12:46:41.435Z,111.60
2022-10-26T12:49:44.113Z,97.43
2022-10-26T12:52:41.660Z,71.85
2022-10-26T12:55:51.501Z,94.30
2022-10-26T12:58:51.694Z,119.90
2022-10-26T13:01:48.526Z,109.40
2022-10-26T13:04:35.905Z,104.70
2022-10-26T13:07:24.079Z,123.83
2022-10-26T13:09:59.977Z,108.73
2022-10-26T13:12:31.320Z,125.43
2022-10-26T13:15:05.719Z,139.23
2022-10-26T13:20:18.899Z,135.07
2022-10-26T13:22:50.098Z,123.57
2022-10-26T13:25:25.143Z,129.87
2022-10-26T13:28:03.722Z,138.40
2022-10-26T13:30:48.742Z,156.37
2022-10-26T13:33:32.585Z,135.97
2022-10-26T13:36:17.616Z,128.10
2022-10-26T13:38:51.480Z,144.53
2022-10-26T13:41:31.548Z,142.97
2022-10-26T13:44:08.616Z,136.50
2022-10-26T13:46:44.105Z,128.20
2022-10-26T13:49:21.886Z,122.50
2022-10-26T13:51:53.152Z,120.40
2022-10-26T13:54:30.053Z,122.13
2022-10-26T13:57:13.662Z,135.63
2022-10-26T13:59:46.394Z,134.83
2022-10-26T14:02:21.584Z,145.37
2022-10-26T14:04:55.860Z,154.00
2022-10-26T14:07:39.206Z,154.73
2022-10-26T14:10:24.500Z,138.57
2022-10-26T14:12:53.564Z,145.27
2022-10-26T14:15:28.819Z,153.13
2022-10-26T14:18:02.351Z,175.50
2022-10-26T14:20:32.347Z,140.03
2022-10-26T14:23:03.207Z,142.97
2022-10-26T14:25:42.904Z,150.73
2022-10-26T14:28:28.615Z,134.03
2022-10-26T14:31:15.175Z,138.07
2022-10-26T14:33:46.725Z,139.83
2022-10-26T14:36:16.493Z,149.37
2022-10-26T14:38:48.181Z,154.37
2022-10-26T14:41:19.354Z,141.10
2022-10-26T14:43:48.324Z,145.33
2022-10-26T14:46:18.948Z,146.17
2022-10-26T14:48:54.840Z,152.47
2022-10-26T14:51:28.406Z,142.18
2022-10-26T14:53:59.441Z,144.80
2022-10-26T14:56:32.082Z,163.40
2022-10-26T14:59:00.924Z,150.67
2022-10-26T15:01:35.871Z,152.47
2022-10-26T15:04:07.704Z,194.82
2022-10-26T15:06:44.716Z,137.03
2022-10-26T15:09:33.475Z,157.47
2022-10-26T15:12:06.596Z,168.40
2022-10-26T15:14:36.845Z,155.53
2022-10-26T15:17:05.697Z,159.57
2022-10-26T15:19:34.717Z,144.80
2022-10-26T15:22:03.509Z,135.10
2022-10-26T15:24:38.654Z,137.77
2022-10-26T15:27:17.768Z,121.20
2022-10-26T15:29:47.558Z,108.70
2022-10-26T15:32:23.456Z,98.30
2022-10-26T15:35:06.673Z,93.80
2022-10-26T15:37:35.480Z,88.90
2022-10-26T15:40:04.255Z,81.10
2022-10-26T15:42:34.649Z,83.23
2022-10-26T15:45:04.394Z,84.43
2022-10-26T15:47:35.799Z,78.50
2022-10-26T15:50:04.690Z,82.27
2022-10-26T15:52:33.626Z,75.70
2022-10-26T15:55:02.426Z,73.73
2022-10-26T15:57:31.032Z,71.50
2022-10-26T16:00:01.229Z,80.30
2022-10-26T16:02:30.037Z,80.27
2022-10-26T16:04:58.737Z,84.23
2022-10-26T16:07:29.125Z,88.90
2022-10-26T16:09:57.996Z,78.60
2022-10-26T16:12:26.737Z,135.93
2022-10-26T16:15:04.968Z,129.75
2022-10-26T16:17:35.827Z,90.13
2022-10-26T16:20:08.923Z,78.47
2022-10-26T16:22:38.566Z,71.73
2022-10-26T16:25:08.234Z,74.60
2022-10-26T16:27:36.855Z,67.53
2022-10-26T16:30:06.105Z,70.13
2022-10-26T16:32:36.091Z,70.53
2022-10-26T16:35:04.822Z,87.03
2022-10-26T16:37:33.738Z,91.47
2022-10-26T16:40:02.450Z,80.00
2022-10-26T16:42:32.517Z,92.77
2022-10-26T16:45:02.833Z,86.20
2022-10-26T16:47:37.833Z,84.17
2022-10-26T16:50:06.972Z,81.67
2022-10-26T16:52:36.602Z,74.63
2022-10-26T16:55:07.954Z,77.63
2022-10-26T16:57:37.789Z,85.17
2022-10-26T17:00:07.978Z,84.13
2022-10-26T17:02:41.131Z,86.37
2022-10-26T17:05:10.242Z,80.13
2022-10-26T17:07:39.020Z,80.67
2022-10-26T17:10:08.152Z,77.73
2022-10-26T17:12:36.762Z,73.80
2022-10-26T17:15:05.704Z,77.33
2022-10-26T17:17:34.316Z,69.90
2022-10-26T17:20:04.632Z,68.70
2022-10-26T17:22:33.347Z,73.67
2022-10-26T17:25:02.039Z,71.57
2022-10-26T17:27:30.667Z,73.07
2022-10-26T17:29:59.340Z,77.00
2022-10-26T17:32:28.165Z,75.03
2022-10-26T17:34:56.891Z,84.87
2022-10-26T17:37:27.012Z,101.50
2022-10-26T17:39:55.692Z,85.97
2022-10-26T17:42:24.342Z,74.97
2022-10-26T17:44:53.122Z,81.90
2022-10-26T17:47:21.755Z,80.77
2022-10-26T17:49:53.437Z,80.80
2022-10-26T17:52:24.868Z,88.43
2022-10-26T17:54:58.075Z,85.33
2022-10-26T17:57:29.178Z,91.70
2022-10-26T17:59:57.895Z,90.00
2022-10-26T18:02:26.769Z,82.37
2022-10-26T18:04:56.502Z,89.23
2022-10-26T18:07:25.153Z,77.07
2022-10-26T18:09:55.205Z,79.70
2022-10-26T18:12:25.081Z,80.90
2022-10-26T18:14:53.726Z,76.73
2022-10-26T18:17:22.396Z,80.37
2022-10-26T18:19:53.936Z,77.90
2022-10-26T18:22:23.062Z,83.07
2022-10-26T18:24:51.758Z,81.13
2022-10-26T18:27:22.111Z,86.97
2022-10-26T18:29:50.967Z,87.67
2022-10-26T18:32:19.579Z,87.03
2022-10-26T18:34:48.346Z,89.77
2022-10-26T18:37:16.986Z,90.60
2022-10-26T18:39:45.663Z,91.57
2022-10-26T18:42:16.965Z,78.90
2022-10-26T18:44:47.167Z,83.63
2022-10-26T18:47:15.883Z,80.43
2022-10-26T18:49:44.512Z,83.73
2022-10-26T18:52:13.561Z,78.13
2022-10-26T18:54:42.367Z,77.63
2022-10-26T18:57:11.048Z,78.70
2022-10-26T18:59:39.658Z,80.67
2022-10-26T19:02:15.555Z,76.17
2022-10-26T19:04:44.428Z,80.07
2022-10-26T19:07:12.978Z,77.93
2022-10-26T19:09:41.990Z,79.57
2022-10-26T19:12:10.603Z,71.43
2022-10-26T19:14:39.321Z,68.90
2022-10-26T19:17:10.586Z,70.87
2022-10-26T19:19:39.292Z,74.70
2022-10-26T19:22:07.902Z,74.93
2022-10-26T19:24:36.622Z,75.33
2022-10-26T19:27:05.528Z,81.23
2022-10-26T19:29:34.169Z,80.13
2022-10-26T19:32:03.053Z,79.23
2022-10-26T19:34:33.209Z,85.60
2022-10-26T19:37:01.913Z,78.57
2022-10-26T19:39:30.841Z,73.23
2022-10-26T19:41:59.516Z,69.60
2022-10-26T19:44:28.129Z,70.63
2022-10-26T19:46:57.885Z,68.57
2022-10-26T19:49:26.646Z,72.37
2022-10-26T19:51:58.198Z,71.00
2022-10-26T19:54:27.100Z,74.43
2022-10-26T19:56:55.727Z,72.27
2022-10-26T19:59:24.377Z,68.47
2022-10-26T20:01:53.057Z,68.80
2022-10-26T20:04:21.865Z,66.40
2022-10-26T20:06:50.497Z,64.40
2022-10-26T20:09:20.621Z,63.40
2022-10-26T20:11:49.976Z,61.87
2022-10-26T20:14:18.781Z,63.67
2022-10-26T20:16:47.697Z,63.00
2022-10-26T20:19:16.318Z,61.63
2022-10-26T20:21:45.161Z,63.03
2022-10-26T20:24:13.982Z,66.87
2022-10-26T20:26:43.978Z,62.57
2022-10-26T20:29:12.636Z,63.37
2022-10-26T20:31:41.270Z,64.13
2022-10-26T20:34:10.722Z,67.80
2022-10-26T20:36:39.930Z,64.60
2022-10-26T20:39:09.089Z,65.70
2022-10-26T20:41:44.910Z,67.97
2022-10-26T20:44:22.655Z,69.10
2022-10-26T20:46:52.118Z,71.37
2022-10-26T20:49:21.421Z,84.07
2022-10-26T20:52:19.379Z,68.27
2022-10-26T20:54:52.852Z,78.17
2022-10-26T20:57:29.844Z,84.13
2022-10-26T21:00:04.107Z,84.60
2022-10-26T21:02:33.089Z,80.87
2022-10-26T21:05:01.755Z,66.87
2022-10-26T21:07:30.374Z,67.70
2022-10-26T21:09:59.030Z,72.00
2022-10-26T21:12:29.049Z,77.40
2022-10-26T21:14:57.736Z,81.70
2022-10-26T21:17:26.347Z,76.37
2022-10-26T21:19:54.970Z,77.03
2022-10-26T21:22:23.770Z,79.47
2022-10-26T21:24:52.372Z,68.43
2022-10-26T21:27:21.044Z,69.30
2022-10-26T21:29:51.159Z,69.87
2022-10-26T21:32:19.846Z,71.40
2022-10-26T21:34:48.455Z,69.70
2022-10-26T21:37:17.128Z,67.47
2022-10-26T21:39:45.774Z,69.80
2022-10-26T21:42:14.385Z,69.70
2022-10-26T21:44:43.094Z,68.38
2022-10-26T21:47:14.017Z,71.07
2022-10-26T21:49:42.640Z,67.20
2022-10-26T21:52:11.563Z,68.30
2022-10-26T21:54:40.192Z,66.37
2022-10-26T21:57:08.853Z,71.77
2022-10-26T21:59:37.426Z,66.00
2022-10-26T22:02:06.376Z,67.60
2022-10-26T22:04:36.626Z,63.13
2022-10-26T22:07:05.343Z,67.53
2022-10-26T22:09:40.622Z,65.30
2022-10-26T22:12:18.326Z,66.13
2022-10-26T22:14:46.924Z,65.47
2022-10-26T22:17:15.834Z,65.30
2022-10-26T22:19:45.946Z,65.90
2022-10-26T22:22:14.556Z,59.97
2022-10-26T22:24:43.187Z,66.03
2022-10-26T22:27:12.019Z,61.53
2022-10-26T22:29:40.762Z,60.53
2022-10-26T22:32:09.384Z,66.57
2022-10-26T22:34:37.974Z,65.57
2022-10-26T22:37:08.118Z,67.63
2022-10-26T22:39:36.834Z,65.83
2022-10-26T22:42:06.178Z,64.53
2022-10-26T22:44:34.840Z,64.33
2022-10-26T22:47:03.460Z,68.63
2022-10-26T22:49:32.143Z,65.53
2022-10-26T22:52:00.876Z,63.50
2022-10-26T22:54:30.996Z,61.47
2022-10-26T22:56:59.579Z,60.63
2022-10-26T22:59:28.213Z,67.03
2022-10-26T23:01:57.003Z,64.30
2022-10-26T23:04:25.713Z,67.13
2022-10-26T23:06:54.391Z,67.20
2022-10-26T23:09:23.089Z,67.33
2022-10-26T23:11:53.132Z,67.17
2022-10-26T23:14:21.688Z,66.23
2022-10-26T23:16:50.381Z,65.40
2022-10-26T23:19:19.009Z,68.17
2022-10-26T23:21:47.794Z,67.87
2022-10-26T23:24:16.397Z,67.87
2022-10-26T23:26:45.070Z,66.30
2022-10-26T23:29:15.170Z,66.57
2022-10-26T23:31:43.853Z,68.60
2022-10-26T23:34:12.590Z,65.80
2022-10-26T23:36:41.294Z,63.30
2022-10-26T23:39:10.068Z,63.73
2022-10-26T23:41:38.668Z,62.17
2022-10-26T23:44:07.293Z,65.23
2022-10-26T23:46:37.316Z,61.53
2022-10-26T23:49:05.991Z,63.83
2022-10-26T23:51:34.709Z,67.23
2022-10-26T23:54:03.294Z,65.10
2022-10-26T23:56:32.251Z,65.57
2022-10-26T23:59:05.574Z,64.93
